Terminal Aerodrome Forecast
Issued by NWS

Home | Current Version | Previous Version | Text Only | Print | Product List | Glossary On
Versions: 1 2 3 4 5 6 7 8 9 10 11 12
000
FTUS42 TJSJ 282300 RRA
TAFJPS
TAF
TJPS 282343Z 2900/2924 00000KT P6SM FEW030
     FM290400 05003KT P6SM VCSH FEW030 SCT050
     FM291500 13012KT P6SM VCSH FEW030 SCT050
     FM292330 09007KT P6SM FEW030 SCT060
      AMD NOT SKED TIL 290300=

USA.gov is the U.S. government's official web portal to all federal, state and local government web resources and services.